sensor_id;sensor_type;location;lat;lon;timestamp;temperature;humidity
3548;DHT22;1788;49.400;11.092;2023-04-25T00:00:51;11.70;55.00
3548;DHT22;1788;49.400;11.092;2023-04-25T00:03:18;11.70;55.00
3548;DHT22;1788;49.400;11.092;2023-04-25T00:05:44;11.70;55.10
3548;DHT22;1788;49.400;11.092;2023-04-25T00:08:11;11.70;55.10
3548;DHT22;1788;49.400;11.092;2023-04-25T00:10:37;11.70;55.10
3548;DHT22;1788;49.400;11.092;2023-04-25T00:13:04;11.70;55.00
3548;DHT22;1788;49.400;11.092;2023-04-25T00:15:31;11.70;55.00
3548;DHT22;1788;49.400;11.092;2023-04-25T00:17:57;11.70;55.00
3548;DHT22;1788;49.400;11.092;2023-04-25T00:20:25;11.80;55.00
3548;DHT22;1788;49.400;11.092;2023-04-25T00:22:51;11.80;55.00
3548;DHT22;1788;49.400;11.092;2023-04-25T00:25:18;11.80;55.00
3548;DHT22;1788;49.400;11.092;2023-04-25T00:27:45;11.80;55.00
3548;DHT22;1788;49.400;11.092;2023-04-25T00:30:12;11.80;55.00
3548;DHT22;1788;49.400;11.092;2023-04-25T00:32:38;11.80;55.00
3548;DHT22;1788;49.400;11.092;2023-04-25T00:35:05;11.80;55.00
3548;DHT22;1788;49.400;11.092;2023-04-25T00:37:32;11.70;55.00
3548;DHT22;1788;49.400;11.092;2023-04-25T00:39:59;11.70;55.80
3548;DHT22;1788;49.400;11.092;2023-04-25T00:42:26;11.60;55.10
3548;DHT22;1788;49.400;11.092;2023-04-25T00:44:52;11.60;55.20
3548;DHT22;1788;49.400;11.092;2023-04-25T00:47:19;11.60;55.30
3548;DHT22;1788;49.400;11.092;2023-04-25T00:49:46;11.60;55.40
3548;DHT22;1788;49.400;11.092;2023-04-25T00:52:13;11.60;55.50
3548;DHT22;1788;49.400;11.092;2023-04-25T00:54:40;11.60;55.60
3548;DHT22;1788;49.400;11.092;2023-04-25T00:57:07;11.60;55.80
3548;DHT22;1788;49.400;11.092;2023-04-25T00:59:34;11.60;55.80
3548;DHT22;1788;49.400;11.092;2023-04-25T01:02:00;11.60;55.80
3548;DHT22;1788;49.400;11.092;2023-04-25T01:04:27;11.60;55.80
3548;DHT22;1788;49.400;11.092;2023-04-25T01:06:53;11.60;55.80
3548;DHT22;1788;49.400;11.092;2023-04-25T01:09:20;11.50;55.80
3548;DHT22;1788;49.400;11.092;2023-04-25T01:11:47;11.50;55.90
3548;DHT22;1788;49.400;11.092;2023-04-25T01:14:13;11.50;56.00
3548;DHT22;1788;49.400;11.092;2023-04-25T01:16:41;11.40;56.10
3548;DHT22;1788;49.400;11.092;2023-04-25T01:19:08;11.40;56.00
3548;DHT22;1788;49.400;11.092;2023-04-25T01:21:34;11.40;56.10
3548;DHT22;1788;49.400;11.092;2023-04-25T01:24:01;11.40;56.20
3548;DHT22;1788;49.400;11.092;2023-04-25T01:26:28;11.40;56.30
3548;DHT22;1788;49.400;11.092;2023-04-25T01:28:54;11.40;56.30
3548;DHT22;1788;49.400;11.092;2023-04-25T01:31:21;11.40;56.30
3548;DHT22;1788;49.400;11.092;2023-04-25T01:33:48;11.50;56.40
3548;DHT22;1788;49.400;11.092;2023-04-25T01:36:14;11.50;56.30
3548;DHT22;1788;49.400;11.092;2023-04-25T01:38:41;11.50;56.30
3548;DHT22;1788;49.400;11.092;2023-04-25T01:41:08;11.50;56.20
3548;DHT22;1788;49.400;11.092;2023-04-25T01:43:35;11.50;56.30
3548;DHT22;1788;49.400;11.092;2023-04-25T01:46:02;11.50;56.30
3548;DHT22;1788;49.400;11.092;2023-04-25T01:48:29;11.40;56.30
3548;DHT22;1788;49.400;11.092;2023-04-25T01:50:56;11.40;56.80
3548;DHT22;1788;49.400;11.092;2023-04-25T01:53:23;11.30;56.30
3548;DHT22;1788;49.400;11.092;2023-04-25T01:55:49;11.30;56.40
3548;DHT22;1788;49.400;11.092;2023-04-25T01:58:16;11.30;56.50
3548;DHT22;1788;49.400;11.092;2023-04-25T02:00:43;11.30;56.60
3548;DHT22;1788;49.400;11.092;2023-04-25T02:03:10;11.30;56.70
3548;DHT22;1788;49.400;11.092;2023-04-25T02:05:37;11.30;56.70
3548;DHT22;1788;49.400;11.092;2023-04-25T02:08:05;11.30;56.80
3548;DHT22;1788;49.400;11.092;2023-04-25T02:10:31;11.30;56.80
3548;DHT22;1788;49.400;11.092;2023-04-25T02:12:57;11.30;56.80
3548;DHT22;1788;49.400;11.092;2023-04-25T02:15:24;11.30;56.80
3548;DHT22;1788;49.400;11.092;2023-04-25T02:17:50;11.30;57.40
3548;DHT22;1788;49.400;11.092;2023-04-25T02:20:17;11.30;56.80
3548;DHT22;1788;49.400;11.092;2023-04-25T02:22:44;11.40;56.90
3548;DHT22;1788;49.400;11.092;2023-04-25T02:25:10;11.40;56.90
3548;DHT22;1788;49.400;11.092;2023-04-25T02:27:37;11.40;56.90
3548;DHT22;1788;49.400;11.092;2023-04-25T02:30:05;11.40;56.90
3548;DHT22;1788;49.400;11.092;2023-04-25T02:32:31;11.40;56.90
3548;DHT22;1788;49.400;11.092;2023-04-25T02:34:57;11.40;56.90
3548;DHT22;1788;49.400;11.092;2023-04-25T02:37:24;11.40;57.00
3548;DHT22;1788;49.400;11.092;2023-04-25T02:39:51;11.40;57.00
3548;DHT22;1788;49.400;11.092;2023-04-25T02:42:17;11.40;57.10
3548;DHT22;1788;49.400;11.092;2023-04-25T02:44:44;11.50;57.20
3548;DHT22;1788;49.400;11.092;2023-04-25T02:47:10;11.50;57.20
3548;DHT22;1788;49.400;11.092;2023-04-25T02:49:37;11.50;57.10
3548;DHT22;1788;49.400;11.092;2023-04-25T02:52:04;11.50;57.10
3548;DHT22;1788;49.400;11.092;2023-04-25T02:54:30;11.50;57.10
3548;DHT22;1788;49.400;11.092;2023-04-25T02:56:57;11.50;57.10
3548;DHT22;1788;49.400;11.092;2023-04-25T02:59:24;11.50;57.10
3548;DHT22;1788;49.400;11.092;2023-04-25T03:01:50;11.50;57.10
3548;DHT22;1788;49.400;11.092;2023-04-25T03:04:17;11.50;57.20
3548;DHT22;1788;49.400;11.092;2023-04-25T03:06:43;11.50;57.20
3548;DHT22;1788;49.400;11.092;2023-04-25T03:09:10;11.50;57.20
3548;DHT22;1788;49.400;11.092;2023-04-25T03:11:38;11.50;57.20
3548;DHT22;1788;49.400;11.092;2023-04-25T03:14:03;11.60;57.30
3548;DHT22;1788;49.400;11.092;2023-04-25T03:16:30;11.60;57.20
3548;DHT22;1788;49.400;11.092;2023-04-25T03:18:56;11.60;57.20
3548;DHT22;1788;49.400;11.092;2023-04-25T03:21:23;11.60;57.20
3548;DHT22;1788;49.400;11.092;2023-04-25T03:23:50;11.60;57.30
3548;DHT22;1788;49.400;11.092;2023-04-25T03:26:16;11.50;57.20
3548;DHT22;1788;49.400;11.092;2023-04-25T03:28:43;11.50;57.20
3548;DHT22;1788;49.400;11.092;2023-04-25T03:31:09;11.50;57.30
3548;DHT22;1788;49.400;11.092;2023-04-25T03:33:36;11.40;57.30
3548;DHT22;1788;49.400;11.092;2023-04-25T03:36:03;11.30;57.40
3548;DHT22;1788;49.400;11.092;2023-04-25T03:38:29;11.30;57.50
3548;DHT22;1788;49.400;11.092;2023-04-25T03:40:56;11.20;57.50
3548;DHT22;1788;49.400;11.092;2023-04-25T03:43:22;11.20;57.60
3548;DHT22;1788;49.400;11.092;2023-04-25T03:45:49;11.20;57.70
3548;DHT22;1788;49.400;11.092;2023-04-25T03:48:16;11.10;57.70
3548;DHT22;1788;49.400;11.092;2023-04-25T03:50:42;11.10;57.80
3548;DHT22;1788;49.400;11.092;2023-04-25T03:53:09;11.10;57.90
3548;DHT22;1788;49.400;11.092;2023-04-25T03:55:36;11.10;58.00
3548;DHT22;1788;49.400;11.092;2023-04-25T03:58:02;11.10;58.00
3548;DHT22;1788;49.400;11.092;2023-04-25T04:00:29;11.10;58.00
3548;DHT22;1788;49.400;11.092;2023-04-25T04:02:55;11.00;57.90
3548;DHT22;1788;49.400;11.092;2023-04-25T04:05:22;11.00;57.90
3548;DHT22;1788;49.400;11.092;2023-04-25T04:07:49;10.90;57.90
3548;DHT22;1788;49.400;11.092;2023-04-25T04:10:15;10.90;57.90
3548;DHT22;1788;49.400;11.092;2023-04-25T04:12:42;10.80;57.90
3548;DHT22;1788;49.400;11.092;2023-04-25T04:15:09;10.70;57.90
3548;DHT22;1788;49.400;11.092;2023-04-25T04:17:35;10.70;58.00
3548;DHT22;1788;49.400;11.092;2023-04-25T04:20:02;10.60;58.00
3548;DHT22;1788;49.400;11.092;2023-04-25T04:22:28;10.60;58.10
3548;DHT22;1788;49.400;11.092;2023-04-25T04:24:55;10.50;58.10
3548;DHT22;1788;49.400;11.092;2023-04-25T04:27:22;10.50;58.20
3548;DHT22;1788;49.400;11.092;2023-04-25T04:29:48;10.40;58.20
3548;DHT22;1788;49.400;11.092;2023-04-25T04:32:15;10.40;58.20
3548;DHT22;1788;49.400;11.092;2023-04-25T04:34:41;10.40;58.80
3548;DHT22;1788;49.400;11.092;2023-04-25T04:37:08;10.40;58.30
3548;DHT22;1788;49.400;11.092;2023-04-25T04:39:35;10.40;58.30
3548;DHT22;1788;49.400;11.092;2023-04-25T04:42:01;10.30;58.20
3548;DHT22;1788;49.400;11.092;2023-04-25T04:44:29;10.30;58.30
3548;DHT22;1788;49.400;11.092;2023-04-25T04:46:55;10.30;58.30
3548;DHT22;1788;49.400;11.092;2023-04-25T04:49:21;10.40;58.40
3548;DHT22;1788;49.400;11.092;2023-04-25T04:51:48;10.40;58.40
3548;DHT22;1788;49.400;11.092;2023-04-25T04:54:15;10.40;58.40
3548;DHT22;1788;49.400;11.092;2023-04-25T04:56:41;10.40;58.40
3548;DHT22;1788;49.400;11.092;2023-04-25T04:59:08;10.50;58.50
3548;DHT22;1788;49.400;11.092;2023-04-25T05:01:35;10.40;58.30
3548;DHT22;1788;49.400;11.092;2023-04-25T05:04:01;10.50;58.40
3548;DHT22;1788;49.400;11.092;2023-04-25T05:06:28;10.50;58.40
3548;DHT22;1788;49.400;11.092;2023-04-25T05:08:55;10.50;58.40
3548;DHT22;1788;49.400;11.092;2023-04-25T05:11:22;10.50;58.30
3548;DHT22;1788;49.400;11.092;2023-04-25T05:13:49;10.50;58.40
3548;DHT22;1788;49.400;11.092;2023-04-25T05:16:15;10.50;58.40
3548;DHT22;1788;49.400;11.092;2023-04-25T05:18:41;10.50;58.40
3548;DHT22;1788;49.400;11.092;2023-04-25T05:21:08;10.50;58.40
3548;DHT22;1788;49.400;11.092;2023-04-25T05:23:35;10.50;58.90
3548;DHT22;1788;49.400;11.092;2023-04-25T05:26:01;10.60;58.40
3548;DHT22;1788;49.400;11.092;2023-04-25T05:28:28;10.60;58.50
3548;DHT22;1788;49.400;11.092;2023-04-25T05:30:55;10.70;58.50
3548;DHT22;1788;49.400;11.092;2023-04-25T05:33:22;10.70;58.50
3548;DHT22;1788;49.400;11.092;2023-04-25T05:35:48;10.70;58.40
3548;DHT22;1788;49.400;11.092;2023-04-25T05:38:15;10.70;58.40
3548;DHT22;1788;49.400;11.092;2023-04-25T05:40:42;10.80;58.50
3548;DHT22;1788;49.400;11.092;2023-04-25T05:43:09;10.80;58.40
3548;DHT22;1788;49.400;11.092;2023-04-25T05:45:36;10.70;58.30
3548;DHT22;1788;49.400;11.092;2023-04-25T05:48:02;10.80;58.40
3548;DHT22;1788;49.400;11.092;2023-04-25T05:50:29;10.70;58.30
3548;DHT22;1788;49.400;11.092;2023-04-25T05:52:55;10.70;58.30
3548;DHT22;1788;49.400;11.092;2023-04-25T05:55:22;10.70;58.30
3548;DHT22;1788;49.400;11.092;2023-04-25T05:57:49;10.80;58.50
3548;DHT22;1788;49.400;11.092;2023-04-25T06:00:15;10.80;58.50
3548;DHT22;1788;49.400;11.092;2023-04-25T06:02:42;10.80;58.50
3548;DHT22;1788;49.400;11.092;2023-04-25T06:05:09;10.80;58.60
3548;DHT22;1788;49.400;11.092;2023-04-25T06:07:36;10.90;58.60
3548;DHT22;1788;49.400;11.092;2023-04-25T06:10:03;11.00;58.60
3548;DHT22;1788;49.400;11.092;2023-04-25T06:12:30;11.00;58.50
3548;DHT22;1788;49.400;11.092;2023-04-25T06:14:56;11.00;58.40
3548;DHT22;1788;49.400;11.092;2023-04-25T06:17:24;11.00;58.30
3548;DHT22;1788;49.400;11.092;2023-04-25T06:19:51;11.10;58.40
3548;DHT22;1788;49.400;11.092;2023-04-25T06:22:19;11.10;58.40
3548;DHT22;1788;49.400;11.092;2023-04-25T06:24:45;11.00;58.30
3548;DHT22;1788;49.400;11.092;2023-04-25T06:27:13;11.10;58.90
3548;DHT22;1788;49.400;11.092;2023-04-25T06:29:39;11.00;58.30
3548;DHT22;1788;49.400;11.092;2023-04-25T06:32:06;11.10;58.30
3548;DHT22;1788;49.400;11.092;2023-04-25T06:34:32;11.10;58.40
3548;DHT22;1788;49.400;11.092;2023-04-25T06:36:59;11.10;58.40
3548;DHT22;1788;49.400;11.092;2023-04-25T06:39:26;11.10;58.40
3548;DHT22;1788;49.400;11.092;2023-04-25T06:41:52;11.20;58.40
3548;DHT22;1788;49.400;11.092;2023-04-25T06:44:20;11.20;58.40
3548;DHT22;1788;49.400;11.092;2023-04-25T06:46:46;11.30;58.40
3548;DHT22;1788;49.400;11.092;2023-04-25T06:49:13;11.30;58.40
3548;DHT22;1788;49.400;11.092;2023-04-25T06:51:40;11.30;58.40
3548;DHT22;1788;49.400;11.092;2023-04-25T06:54:06;11.30;58.30
3548;DHT22;1788;49.400;11.092;2023-04-25T06:56:34;11.30;58.40
3548;DHT22;1788;49.400;11.092;2023-04-25T06:59:00;11.30;58.40
3548;DHT22;1788;49.400;11.092;2023-04-25T07:01:27;11.20;58.40
3548;DHT22;1788;49.400;11.092;2023-04-25T07:03:53;11.10;58.40
3548;DHT22;1788;49.400;11.092;2023-04-25T07:06:20;11.00;58.40
3548;DHT22;1788;49.400;11.092;2023-04-25T07:08:47;10.90;58.50
3548;DHT22;1788;49.400;11.092;2023-04-25T07:11:13;10.90;58.60
3548;DHT22;1788;49.400;11.092;2023-04-25T07:13:41;10.90;59.30
3548;DHT22;1788;49.400;11.092;2023-04-25T07:16:07;10.90;58.80
3548;DHT22;1788;49.400;11.092;2023-04-25T07:18:35;10.90;59.50
3548;DHT22;1788;49.400;11.092;2023-04-25T07:21:01;10.90;58.90
3548;DHT22;1788;49.400;11.092;2023-04-25T07:23:28;10.90;58.90
3548;DHT22;1788;49.400;11.092;2023-04-25T07:25:55;10.90;59.00
3548;DHT22;1788;49.400;11.092;2023-04-25T07:28:22;10.90;59.00
3548;DHT22;1788;49.400;11.092;2023-04-25T07:30:50;11.00;59.70
3548;DHT22;1788;49.400;11.092;2023-04-25T07:33:16;11.10;59.20
3548;DHT22;1788;49.400;11.092;2023-04-25T07:35:43;11.10;59.00
3548;DHT22;1788;49.400;11.092;2023-04-25T07:38:10;11.10;59.00
3548;DHT22;1788;49.400;11.092;2023-04-25T07:40:36;11.10;58.90
3548;DHT22;1788;49.400;11.092;2023-04-25T07:43:03;11.10;58.90
3548;DHT22;1788;49.400;11.092;2023-04-25T07:45:30;11.10;58.90
3548;DHT22;1788;49.400;11.092;2023-04-25T07:47:57;11.10;58.90
3548;DHT22;1788;49.400;11.092;2023-04-25T07:50:24;11.10;58.70
3548;DHT22;1788;49.400;11.092;2023-04-25T07:52:51;11.10;58.70
3548;DHT22;1788;49.400;11.092;2023-04-25T07:55:17;11.10;58.60
3548;DHT22;1788;49.400;11.092;2023-04-25T07:57:44;11.10;58.50
3548;DHT22;1788;49.400;11.092;2023-04-25T08:02:39;11.10;58.50
3548;DHT22;1788;49.400;11.092;2023-04-25T08:05:06;11.10;58.40
3548;DHT22;1788;49.400;11.092;2023-04-25T08:07:32;11.10;58.30
3548;DHT22;1788;49.400;11.092;2023-04-25T08:10:00;11.10;58.30
3548;DHT22;1788;49.400;11.092;2023-04-25T08:12:26;11.10;58.30
3548;DHT22;1788;49.400;11.092;2023-04-25T08:14:54;11.10;58.20
3548;DHT22;1788;49.400;11.092;2023-04-25T08:17:20;11.10;58.20
3548;DHT22;1788;49.400;11.092;2023-04-25T08:19:48;11.00;58.10
3548;DHT22;1788;49.400;11.092;2023-04-25T08:22:14;11.00;58.10
3548;DHT22;1788;49.400;11.092;2023-04-25T08:24:45;10.90;58.20
3548;DHT22;1788;49.400;11.092;2023-04-25T08:27:11;10.90;58.20
3548;DHT22;1788;49.400;11.092;2023-04-25T08:29:38;10.90;58.20
3548;DHT22;1788;49.400;11.092;2023-04-25T08:32:05;11.00;58.30
3548;DHT22;1788;49.400;11.092;2023-04-25T08:34:31;11.00;58.20
3548;DHT22;1788;49.400;11.092;2023-04-25T08:36:58;11.00;58.10
3548;DHT22;1788;49.400;11.092;2023-04-25T08:39:24;11.10;58.10
3548;DHT22;1788;49.400;11.092;2023-04-25T08:41:53;11.20;58.10
3548;DHT22;1788;49.400;11.092;2023-04-25T08:44:19;11.20;58.00
3548;DHT22;1788;49.400;11.092;2023-04-25T08:46:46;11.40;58.00
3548;DHT22;1788;49.400;11.092;2023-04-25T08:49:14;11.60;57.80
3548;DHT22;1788;49.400;11.092;2023-04-25T08:51:44;11.60;57.80
3548;DHT22;1788;49.400;11.092;2023-04-25T08:56:34;11.80;57.50
3548;DHT22;1788;49.400;11.092;2023-04-25T08:59:01;12.00;57.40
3548;DHT22;1788;49.400;11.092;2023-04-25T09:01:27;12.10;57.30
3548;DHT22;1788;49.400;11.092;2023-04-25T09:03:56;12.40;57.20
3548;DHT22;1788;49.400;11.092;2023-04-25T09:06:22;12.40;57.20
3548;DHT22;1788;49.400;11.092;2023-04-25T09:08:49;12.50;57.10
3548;DHT22;1788;49.400;11.092;2023-04-25T09:11:16;12.60;57.00
3548;DHT22;1788;49.400;11.092;2023-04-25T09:13:42;12.60;56.80
3548;DHT22;1788;49.400;11.092;2023-04-25T09:16:09;12.80;56.70
3548;DHT22;1788;49.400;11.092;2023-04-25T09:18:36;12.70;56.60
3548;DHT22;1788;49.400;11.092;2023-04-25T09:23:30;12.60;56.30
3548;DHT22;1788;49.400;11.092;2023-04-25T09:25:56;12.60;56.50
3548;DHT22;1788;49.400;11.092;2023-04-25T09:28:27;12.50;56.40
3548;DHT22;1788;49.400;11.092;2023-04-25T09:30:54;12.40;56.40
3548;DHT22;1788;49.400;11.092;2023-04-25T09:33:20;12.40;56.50
3548;DHT22;1788;49.400;11.092;2023-04-25T09:35:48;12.30;56.50
3548;DHT22;1788;49.400;11.092;2023-04-25T09:38:15;12.30;56.40
3548;DHT22;1788;49.400;11.092;2023-04-25T09:40:43;12.30;56.70
3548;DHT22;1788;49.400;11.092;2023-04-25T09:43:10;12.30;56.70
3548;DHT22;1788;49.400;11.092;2023-04-25T09:48:03;13.10;56.70
3548;DHT22;1788;49.400;11.092;2023-04-25T09:50:30;13.00;56.60
3548;DHT22;1788;49.400;11.092;2023-04-25T09:53:02;13.30;56.30
3548;DHT22;1788;49.400;11.092;2023-04-25T09:55:23;13.60;56.10
3548;DHT22;1788;49.400;11.092;2023-04-25T09:57:50;14.00;55.90
3548;DHT22;1788;49.400;11.092;2023-04-25T10:00:16;14.30;55.50
3548;DHT22;1788;49.400;11.092;2023-04-25T10:02:44;14.50;55.20
3548;DHT22;1788;49.400;11.092;2023-04-25T10:05:11;14.50;54.80
3548;DHT22;1788;49.400;11.092;2023-04-25T10:07:38;14.50;54.50
3548;DHT22;1788;49.400;11.092;2023-04-25T10:10:05;14.30;54.20
3548;DHT22;1788;49.400;11.092;2023-04-25T10:12:32;14.30;54.10
3548;DHT22;1788;49.400;11.092;2023-04-25T10:14:59;14.30;54.10
3548;DHT22;1788;49.400;11.092;2023-04-25T10:17:26;14.20;54.10
3548;DHT22;1788;49.400;11.092;2023-04-25T10:19:53;14.10;54.10
3548;DHT22;1788;49.400;11.092;2023-04-25T10:24:47;14.10;54.40
3548;DHT22;1788;49.400;11.092;2023-04-25T10:27:14;14.10;53.70
3548;DHT22;1788;49.400;11.092;2023-04-25T10:29:40;14.10;53.60
3548;DHT22;1788;49.400;11.092;2023-04-25T10:32:07;14.00;53.40
3548;DHT22;1788;49.400;11.092;2023-04-25T10:37:01;14.00;53.50
3548;DHT22;1788;49.400;11.092;2023-04-25T10:39:28;14.60;53.50
3548;DHT22;1788;49.400;11.092;2023-04-25T10:41:55;14.60;53.40
3548;DHT22;1788;49.400;11.092;2023-04-25T10:44:22;14.80;52.90
3548;DHT22;1788;49.400;11.092;2023-04-25T10:46:49;14.80;52.80
3548;DHT22;1788;49.400;11.092;2023-04-25T10:51:42;14.90;52.20
3548;DHT22;1788;49.400;11.092;2023-04-25T10:54:09;14.80;51.90
3548;DHT22;1788;49.400;11.092;2023-04-25T10:56:37;14.70;51.80
3548;DHT22;1788;49.400;11.092;2023-04-25T11:01:35;14.60;51.70
3548;DHT22;1788;49.400;11.092;2023-04-25T11:03:57;14.70;51.60
3548;DHT22;1788;49.400;11.092;2023-04-25T11:06:29;14.90;51.50
3548;DHT22;1788;49.400;11.092;2023-04-25T11:08:50;15.10;51.00
3548;DHT22;1788;49.400;11.092;2023-04-25T11:11:17;15.40;50.60
3548;DHT22;1788;49.400;11.092;2023-04-25T11:13:44;15.60;50.30
3548;DHT22;1788;49.400;11.092;2023-04-25T11:16:10;15.60;49.90
3548;DHT22;1788;49.400;11.092;2023-04-25T11:18:37;15.60;49.60
3548;DHT22;1788;49.400;11.092;2023-04-25T11:21:04;15.50;49.20
3548;DHT22;1788;49.400;11.092;2023-04-25T11:23:31;15.50;49.10
3548;DHT22;1788;49.400;11.092;2023-04-25T11:25:57;15.50;49.00
3548;DHT22;1788;49.400;11.092;2023-04-25T11:28:26;15.50;48.80
3548;DHT22;1788;49.400;11.092;2023-04-25T11:30:53;15.80;48.30
3548;DHT22;1788;49.400;11.092;2023-04-25T11:35:47;15.80;48.10
3548;DHT22;1788;49.400;11.092;2023-04-25T11:38:16;15.60;47.50
3548;DHT22;1788;49.400;11.092;2023-04-25T11:40:42;15.60;47.50
3548;DHT22;1788;49.400;11.092;2023-04-25T11:43:09;15.50;47.60
3548;DHT22;1788;49.400;11.092;2023-04-25T11:45:36;15.40;47.50
3548;DHT22;1788;49.400;11.092;2023-04-25T11:48:03;15.50;47.30
3548;DHT22;1788;49.400;11.092;2023-04-25T11:50:30;15.50;47.30
3548;DHT22;1788;49.400;11.092;2023-04-25T11:52:57;15.40;46.70
3548;DHT22;1788;49.400;11.092;2023-04-25T11:55:25;15.40;46.70
3548;DHT22;1788;49.400;11.092;2023-04-25T11:57:51;15.30;46.50
3548;DHT22;1788;49.400;11.092;2023-04-25T12:00:19;15.30;46.50
3548;DHT22;1788;49.400;11.092;2023-04-25T12:05:13;15.80;46.70
3548;DHT22;1788;49.400;11.092;2023-04-25T12:07:39;16.10;46.30
3548;DHT22;1788;49.400;11.092;2023-04-25T12:10:06;16.30;46.10
3548;DHT22;1788;49.400;11.092;2023-04-25T12:12:32;16.40;45.80
3548;DHT22;1788;49.400;11.092;2023-04-25T12:15:08;16.50;45.50
3548;DHT22;1788;49.400;11.092;2023-04-25T12:17:26;17.10;45.30
3548;DHT22;1788;49.400;11.092;2023-04-25T12:19:53;17.00;45.10
3548;DHT22;1788;49.400;11.092;2023-04-25T12:22:21;17.60;44.20
3548;DHT22;1788;49.400;11.092;2023-04-25T12:24:47;17.60;44.20
3548;DHT22;1788;49.400;11.092;2023-04-25T12:27:14;17.80;42.90
3548;DHT22;1788;49.400;11.092;2023-04-25T12:29:49;17.80;43.20
3548;DHT22;1788;49.400;11.092;2023-04-25T12:32:07;17.70;42.90
3548;DHT22;1788;49.400;11.092;2023-04-25T12:34:34;17.60;42.70
3548;DHT22;1788;49.400;11.092;2023-04-25T12:37:01;17.50;43.10
3548;DHT22;1788;49.400;11.092;2023-04-25T12:39:28;17.40;42.60
3548;DHT22;1788;49.400;11.092;2023-04-25T12:41:55;17.20;42.60
3548;DHT22;1788;49.400;11.092;2023-04-25T12:44:22;17.10;42.60
3548;DHT22;1788;49.400;11.092;2023-04-25T12:46:49;17.00;43.50
3548;DHT22;1788;49.400;11.092;2023-04-25T12:49:16;17.00;42.90
3548;DHT22;1788;49.400;11.092;2023-04-25T12:51:44;17.10;43.50
3548;DHT22;1788;49.400;11.092;2023-04-25T12:54:10;17.10;43.40
3548;DHT22;1788;49.400;11.092;2023-04-25T12:56:37;17.20;44.20
3548;DHT22;1788;49.400;11.092;2023-04-25T12:59:04;17.20;43.60
3548;DHT22;1788;49.400;11.092;2023-04-25T13:01:30;17.10;43.20
3548;DHT22;1788;49.400;11.092;2023-04-25T13:03:57;16.80;42.80
3548;DHT22;1788;49.400;11.092;2023-04-25T13:06:24;16.40;42.80
3548;DHT22;1788;49.400;11.092;2023-04-25T13:08:51;16.40;42.80
3548;DHT22;1788;49.400;11.092;2023-04-25T13:11:18;16.00;42.40
3548;DHT22;1788;49.400;11.092;2023-04-25T13:13:45;16.00;42.70
3548;DHT22;1788;49.400;11.092;2023-04-25T13:16:11;15.80;42.60
3548;DHT22;1788;49.400;11.092;2023-04-25T13:18:38;15.70;42.70
3548;DHT22;1788;49.400;11.092;2023-04-25T13:21:05;15.50;42.70
3548;DHT22;1788;49.400;11.092;2023-04-25T13:23:32;15.50;42.80
3548;DHT22;1788;49.400;11.092;2023-04-25T13:25:59;15.40;42.70
3548;DHT22;1788;49.400;11.092;2023-04-25T13:28:26;15.50;42.70
3548;DHT22;1788;49.400;11.092;2023-04-25T13:30:53;15.50;42.70
3548;DHT22;1788;49.400;11.092;2023-04-25T13:33:21;15.50;42.70
3548;DHT22;1788;49.400;11.092;2023-04-25T13:35:48;15.50;42.70
3548;DHT22;1788;49.400;11.092;2023-04-25T13:38:14;15.50;42.70
3548;DHT22;1788;49.400;11.092;2023-04-25T13:40:47;15.50;42.70
3548;DHT22;1788;49.400;11.092;2023-04-25T13:43:13;15.50;42.80
3548;DHT22;1788;49.400;11.092;2023-04-25T13:45:40;15.50;42.90
3548;DHT22;1788;49.400;11.092;2023-04-25T13:48:07;15.50;42.70
3548;DHT22;1788;49.400;11.092;2023-04-25T13:50:36;15.50;42.70
3548;DHT22;1788;49.400;11.092;2023-04-25T13:53:03;15.50;42.70
3548;DHT22;1788;49.400;11.092;2023-04-25T13:55:30;15.50;42.70
3548;DHT22;1788;49.400;11.092;2023-04-25T13:57:57;15.40;42.70
3548;DHT22;1788;49.400;11.092;2023-04-25T14:00:24;15.40;42.80
3548;DHT22;1788;49.400;11.092;2023-04-25T14:02:50;15.40;42.80
3548;DHT22;1788;49.400;11.092;2023-04-25T14:05:17;15.30;42.80
3548;DHT22;1788;49.400;11.092;2023-04-25T14:07:44;15.20;42.80
3548;DHT22;1788;49.400;11.092;2023-04-25T14:10:10;15.10;42.90
3548;DHT22;1788;49.400;11.092;2023-04-25T14:12:37;15.00;42.90
3548;DHT22;1788;49.400;11.092;2023-04-25T14:15:04;14.80;42.80
3548;DHT22;1788;49.400;11.092;2023-04-25T14:17:30;14.70;42.90
3548;DHT22;1788;49.400;11.092;2023-04-25T14:19:57;14.70;43.00
3548;DHT22;1788;49.400;11.092;2023-04-25T14:22:24;14.60;43.00
3548;DHT22;1788;49.400;11.092;2023-04-25T14:24:51;14.50;43.00
3548;DHT22;1788;49.400;11.092;2023-04-25T14:27:18;14.50;43.10
3548;DHT22;1788;49.400;11.092;2023-04-25T14:29:44;14.50;43.20
3548;DHT22;1788;49.400;11.092;2023-04-25T14:32:12;14.60;44.10
3548;DHT22;1788;49.400;11.092;2023-04-25T14:34:38;14.50;43.40
3548;DHT22;1788;49.400;11.092;2023-04-25T14:37:06;14.60;43.50
3548;DHT22;1788;49.400;11.092;2023-04-25T14:39:33;14.50;43.40
3548;DHT22;1788;49.400;11.092;2023-04-25T14:42:00;14.50;43.50
3548;DHT22;1788;49.400;11.092;2023-04-25T14:44:27;14.40;43.50
3548;DHT22;1788;49.400;11.092;2023-04-25T14:46:55;14.30;43.50
3548;DHT22;1788;49.400;11.092;2023-04-25T14:49:21;14.20;43.50
3548;DHT22;1788;49.400;11.092;2023-04-25T14:51:48;14.10;43.60
3548;DHT22;1788;49.400;11.092;2023-04-25T14:54:14;14.00;43.80
3548;DHT22;1788;49.400;11.092;2023-04-25T14:56:41;13.90;43.80
3548;DHT22;1788;49.400;11.092;2023-04-25T14:59:08;13.80;44.00
3548;DHT22;1788;49.400;11.092;2023-04-25T15:01:35;13.70;43.80
3548;DHT22;1788;49.400;11.092;2023-04-25T15:04:02;13.70;44.10
3548;DHT22;1788;49.400;11.092;2023-04-25T15:06:29;13.60;44.10
3548;DHT22;1788;49.400;11.092;2023-04-25T15:08:55;13.60;44.20
3548;DHT22;1788;49.400;11.092;2023-04-25T15:11:22;13.60;44.30
3548;DHT22;1788;49.400;11.092;2023-04-25T15:13:49;13.70;44.40
3548;DHT22;1788;49.400;11.092;2023-04-25T15:16:15;13.70;44.50
3548;DHT22;1788;49.400;11.092;2023-04-25T15:18:42;13.70;44.50
3548;DHT22;1788;49.400;11.092;2023-04-25T15:21:09;13.80;44.50
3548;DHT22;1788;49.400;11.092;2023-04-25T15:23:36;13.80;44.50
3548;DHT22;1788;49.400;11.092;2023-04-25T15:26:02;13.90;45.10
3548;DHT22;1788;49.400;11.092;2023-04-25T15:28:29;13.90;44.40
3548;DHT22;1788;49.400;11.092;2023-04-25T15:30:56;13.90;44.40
3548;DHT22;1788;49.400;11.092;2023-04-25T15:33:22;13.90;44.40
3548;DHT22;1788;49.400;11.092;2023-04-25T15:35:49;14.00;44.40
3548;DHT22;1788;49.400;11.092;2023-04-25T15:38:15;14.00;44.40
3548;DHT22;1788;49.400;11.092;2023-04-25T15:40:42;14.10;44.40
3548;DHT22;1788;49.400;11.092;2023-04-25T15:43:09;14.10;45.00
3548;DHT22;1788;49.400;11.092;2023-04-25T15:45:36;14.10;44.40
3548;DHT22;1788;49.400;11.092;2023-04-25T15:48:03;14.10;44.60
3548;DHT22;1788;49.400;11.092;2023-04-25T15:50:30;14.10;44.50
3548;DHT22;1788;49.400;11.092;2023-04-25T15:52:57;14.00;44.50
3548;DHT22;1788;49.400;11.092;2023-04-25T15:55:24;14.00;44.50
3548;DHT22;1788;49.400;11.092;2023-04-25T15:57:51;14.00;44.60
3548;DHT22;1788;49.400;11.092;2023-04-25T16:00:17;14.10;44.80
3548;DHT22;1788;49.400;11.092;2023-04-25T16:02:44;14.20;44.80
3548;DHT22;1788;49.400;11.092;2023-04-25T16:05:11;14.50;44.60